createdAt,value
2018-06-19T00:00:41.495Z,101240.48
2018-06-19T00:03:11.302Z,101248.56
2018-06-19T00:05:41.160Z,101250.88
2018-06-19T00:08:10.921Z,101251.17
2018-06-19T00:10:40.758Z,101251.57
2018-06-19T00:13:10.586Z,101255.92
2018-06-19T00:15:40.389Z,101256.72
2018-06-19T00:18:23.142Z,101252.84
2018-06-19T00:20:55.643Z,101249.39
2018-06-19T00:23:25.526Z,101248.70
2018-06-19T00:25:55.283Z,101255.07
2018-06-19T00:28:25.410Z,101247.00
2018-06-19T00:30:55.147Z,101255.95
2018-06-19T00:33:25.055Z,101256.45
2018-06-19T00:35:55.007Z,101249.95
2018-06-19T00:38:24.828Z,101249.30
2018-06-19T00:40:54.658Z,101251.98
2018-06-19T00:43:24.454Z,101254.00
2018-06-19T00:45:54.524Z,101254.42
2018-06-19T00:48:25.013Z,101255.52
2018-06-19T00:50:56.494Z,101261.13
2018-06-19T00:53:26.350Z,101262.70
2018-06-19T00:56:06.126Z,101263.38
2018-06-19T00:58:38.015Z,101270.92
2018-06-19T01:01:07.738Z,101267.24
2018-06-19T01:03:37.606Z,101269.08
2018-06-19T01:06:07.550Z,101262.41
2018-06-19T01:08:38.221Z,101265.48
2018-06-19T01:11:09.113Z,101262.62
2018-06-19T01:13:38.998Z,101265.80
2018-06-19T01:16:09.590Z,101267.03
2018-06-19T01:18:41.246Z,101273.38
2018-06-19T01:21:11.485Z,101271.84
2018-06-19T01:23:41.393Z,101276.68
2018-06-19T01:26:11.234Z,101269.17
2018-06-19T01:28:44.901Z,101272.17
2018-06-19T01:31:15.038Z,101269.22
2018-06-19T01:33:44.856Z,101267.33
2018-06-19T01:36:15.079Z,101269.38
2018-06-19T01:38:45.702Z,101265.37
2018-06-19T01:41:15.682Z,101268.41
2018-06-19T01:43:46.142Z,101264.98
2018-06-19T01:46:16.006Z,101270.33
2018-06-19T01:48:46.028Z,101264.98
2018-06-19T01:51:16.548Z,101260.70
2018-06-19T01:53:47.432Z,101262.41
2018-06-19T01:56:17.226Z,101259.64
2018-06-19T01:58:47.060Z,101258.19
2018-06-19T02:01:17.660Z,101257.89
2018-06-19T02:03:47.540Z,101257.02
2018-06-19T02:06:17.379Z,101261.86
2018-06-19T02:08:47.129Z,101256.66
2018-06-19T02:11:16.549Z,101254.00
2018-06-19T02:13:46.397Z,101256.45
2018-06-19T02:16:16.148Z,101257.88
2018-06-19T02:18:46.096Z,101255.11
2018-06-19T02:21:16.498Z,101257.73
2018-06-19T02:23:46.420Z,101255.94
2018-06-19T02:26:16.935Z,101254.42
2018-06-19T02:28:46.753Z,101261.94
2018-06-19T02:31:16.720Z,101255.81
2018-06-19T02:33:46.478Z,101261.16
2018-06-19T02:36:16.270Z,101264.34
2018-06-19T02:38:46.056Z,101261.16
2018-06-19T02:41:15.858Z,101259.95
2018-06-19T02:43:46.239Z,101265.77
2018-06-19T02:46:15.703Z,101266.64
2018-06-19T02:48:46.445Z,101267.97
2018-06-19T02:51:16.424Z,101272.35
2018-06-19T02:53:46.197Z,101268.75
2018-06-19T02:56:16.697Z,101268.44
2018-06-19T02:58:46.531Z,101264.19
2018-06-19T03:01:17.023Z,101259.82
2018-06-19T03:03:46.894Z,101267.51
2018-06-19T03:06:16.788Z,101265.30
2018-06-19T03:08:46.474Z,101262.26
2018-06-19T03:11:16.291Z,101265.30
2018-06-19T03:13:47.093Z,101260.87
2018-06-19T03:16:18.207Z,101260.05
2018-06-19T03:18:48.133Z,101260.87
2018-06-19T03:21:18.035Z,101263.78
2018-06-19T03:23:55.589Z,101265.30
2018-06-19T03:26:25.605Z,101265.44
2018-06-19T03:28:55.561Z,101266.20
2018-06-19T03:31:25.412Z,101265.41
2018-06-19T03:33:55.900Z,101269.85
2018-06-19T03:36:26.296Z,101266.17
2018-06-19T03:38:56.153Z,101274.71
2018-06-19T03:41:26.006Z,101273.48
2018-06-19T03:43:56.975Z,101270.97
2018-06-19T03:46:27.105Z,101268.45
2018-06-19T03:48:58.322Z,101265.77
2018-06-19T03:51:28.299Z,101266.53
2018-06-19T03:53:58.075Z,101271.69
2018-06-19T03:56:28.513Z,101270.44
2018-06-19T03:58:59.625Z,101259.47
2018-06-19T04:01:29.417Z,101267.25
2018-06-19T04:03:59.233Z,101274.09
2018-06-19T04:06:31.608Z,101275.79
2018-06-19T04:09:04.811Z,101278.16
2018-06-19T04:11:35.457Z,101279.11
2018-06-19T04:14:05.309Z,101282.17
2018-06-19T04:16:36.196Z,101283.83
2018-06-19T04:19:06.062Z,101287.59
2018-06-19T04:21:36.704Z,101290.02
2018-06-19T04:24:07.085Z,101289.95
2018-06-19T04:26:38.050Z,101286.80
2018-06-19T04:29:07.816Z,101287.45
2018-06-19T04:31:37.665Z,101289.73
2018-06-19T04:34:07.896Z,101288.42
2018-06-19T04:36:37.857Z,101289.97
2018-06-19T04:39:11.865Z,101286.68
2018-06-19T04:41:42.080Z,101286.46
2018-06-19T04:44:11.835Z,101277.07
2018-06-19T04:46:41.993Z,101282.60
2018-06-19T04:49:12.876Z,101289.86
2018-06-19T04:51:43.003Z,101295.52
2018-06-19T04:54:12.939Z,101283.81
2018-06-19T04:56:43.592Z,101288.07
2018-06-19T04:59:14.163Z,101295.20
2018-06-19T05:01:44.698Z,101300.43
2018-06-19T05:04:14.706Z,101294.80
2018-06-19T05:06:44.562Z,101300.97
2018-06-19T05:09:15.942Z,101304.28
2018-06-19T05:11:46.553Z,101304.94
2018-06-19T05:14:17.260Z,101305.47
2018-06-19T05:16:48.664Z,101303.68
2018-06-19T05:19:19.141Z,101298.34
2018-06-19T05:21:49.335Z,101292.50
2018-06-19T05:24:20.184Z,101299.53
2018-06-19T05:26:50.496Z,101304.95
2018-06-19T05:29:20.252Z,101300.62
2018-06-19T05:31:50.044Z,101304.02
2018-06-19T05:34:19.840Z,101302.94
2018-06-19T05:36:49.626Z,101305.63
2018-06-19T05:39:19.515Z,101306.20
2018-06-19T05:41:49.340Z,101315.39
2018-06-19T05:44:19.403Z,101309.34
2018-06-19T05:46:49.197Z,101317.05
2018-06-19T05:49:19.014Z,101325.92
2018-06-19T05:51:48.796Z,101323.53
2018-06-19T05:54:18.858Z,101328.79
2018-06-19T05:56:50.412Z,101327.84
2018-06-19T05:59:20.194Z,101326.96
2018-06-19T06:01:50.580Z,101332.65
2018-06-19T06:04:20.686Z,101343.12
2018-06-19T06:06:50.583Z,101347.65
2018-06-19T06:09:20.512Z,101349.96
2018-06-19T06:11:50.244Z,101350.61
2018-06-19T06:14:20.020Z,101347.40
2018-06-19T06:16:49.868Z,101349.85
2018-06-19T06:19:19.654Z,101358.14
2018-06-19T06:21:49.391Z,101358.78
2018-06-19T06:24:19.156Z,101357.89
2018-06-19T06:26:48.954Z,101359.52
2018-06-19T06:29:18.760Z,101364.63
2018-06-19T06:31:49.436Z,101369.36
2018-06-19T06:34:19.265Z,101369.31
2018-06-19T06:36:49.091Z,101365.19
2018-06-19T06:39:19.111Z,101372.48
2018-06-19T06:41:48.936Z,101372.31
2018-06-19T06:44:18.864Z,101366.97
2018-06-19T06:46:48.734Z,101370.02
2018-06-19T06:49:18.515Z,101373.34
2018-06-19T06:51:48.304Z,101378.03
2018-06-19T06:54:18.056Z,101383.31
2018-06-19T06:56:47.794Z,101380.92
2018-06-19T06:59:17.645Z,101392.68
2018-06-19T07:01:47.420Z,101396.22
2018-06-19T07:04:17.174Z,101388.30
2018-06-19T07:06:46.898Z,101393.34
2018-06-19T07:09:16.692Z,101390.23
2018-06-19T07:11:46.400Z,101381.95
2018-06-19T07:14:16.233Z,101380.88
2018-06-19T07:16:46.063Z,101381.38
2018-06-19T07:19:15.869Z,101382.83
2018-06-19T07:21:45.671Z,101384.66
2018-06-19T07:24:15.402Z,101384.64
2018-06-19T07:26:45.157Z,101390.88
2018-06-19T07:29:14.960Z,101395.30
2018-06-19T07:31:44.755Z,101398.33
2018-06-19T07:34:14.512Z,101393.39
2018-06-19T07:36:44.236Z,101397.09
2018-06-19T07:39:13.960Z,101389.13
2018-06-19T07:41:43.826Z,101391.70
2018-06-19T07:44:13.823Z,101382.92
2018-06-19T07:46:43.623Z,101380.33
2018-06-19T07:49:13.623Z,101381.64
2018-06-19T07:51:43.419Z,101379.55
2018-06-19T07:54:13.199Z,101377.68
2018-06-19T07:56:42.959Z,101380.53
2018-06-19T07:59:12.667Z,101392.55
2018-06-19T08:01:42.498Z,101388.09
2018-06-19T08:04:12.374Z,101388.58
2018-06-19T08:06:42.227Z,101382.69
2018-06-19T08:09:12.457Z,101377.43
2018-06-19T08:11:42.327Z,101376.89
2018-06-19T08:14:12.136Z,101384.66
2018-06-19T08:16:42.019Z,101380.53
2018-06-19T08:19:11.756Z,101374.98
2018-06-19T08:21:41.538Z,101386.45
2018-06-19T08:24:11.435Z,101375.20
2018-06-19T08:26:41.380Z,101373.67
2018-06-19T08:29:11.198Z,101375.41
2018-06-19T08:31:40.922Z,101366.02
2018-06-19T08:34:10.747Z,101362.97
2018-06-19T08:36:40.699Z,101371.42
2018-06-19T08:39:12.937Z,101376.76
2018-06-19T08:41:44.016Z,101374.89
2018-06-19T08:44:14.390Z,101363.05
2018-06-19T08:46:44.143Z,101370.97
2018-06-19T08:49:14.493Z,101369.23
2018-06-19T08:51:44.284Z,101382.63
2018-06-19T08:54:14.111Z,101374.02
2018-06-19T08:56:43.863Z,101366.78
2018-06-19T08:59:13.623Z,101356.31
2018-06-19T09:01:43.374Z,101371.12
2018-06-19T09:04:13.236Z,101367.18
2018-06-19T09:06:43.066Z,101367.06
2018-06-19T09:09:13.159Z,101368.75
2018-06-19T09:11:43.021Z,101364.82
2018-06-19T09:14:12.767Z,101361.23
2018-06-19T09:16:42.507Z,101364.12
2018-06-19T09:19:12.214Z,101362.73
2018-06-19T09:21:41.991Z,101366.81
2018-06-19T09:24:11.715Z,101371.38
2018-06-19T09:26:41.537Z,101372.75
2018-06-19T09:29:11.253Z,101374.95
2018-06-19T09:31:41.161Z,101374.38
2018-06-19T09:34:10.899Z,101377.72
2018-06-19T09:36:40.808Z,101373.92
2018-06-19T09:39:12.857Z,101380.55
2018-06-19T09:41:43.985Z,101376.00
2018-06-19T09:44:13.783Z,101374.02
2018-06-19T09:46:43.619Z,101369.81
2018-06-19T09:49:13.406Z,101374.62
2018-06-19T09:51:44.006Z,101364.66
2018-06-19T09:54:13.798Z,101363.14
2018-06-19T09:56:43.683Z,101361.62
2018-06-19T09:59:13.464Z,101371.27
2018-06-19T10:01:43.539Z,101367.31
2018-06-19T10:04:13.336Z,101358.14
2018-06-19T10:06:43.169Z,101360.27
2018-06-19T10:09:12.914Z,101358.66
2018-06-19T10:11:42.742Z,101364.66
2018-06-19T10:14:12.522Z,101368.73
2018-06-19T10:16:42.334Z,101364.85
2018-06-19T10:19:12.144Z,101368.80
2018-06-19T10:21:42.146Z,101378.86
2018-06-19T10:24:11.907Z,101380.12
2018-06-19T10:26:41.734Z,101380.45
2018-06-19T10:29:11.551Z,101374.94
2018-06-19T10:31:41.325Z,101378.42
2018-06-19T10:34:11.091Z,101379.09
2018-06-19T10:36:40.906Z,101365.35
2018-06-19T10:39:11.668Z,101374.34
2018-06-19T10:41:41.466Z,101366.16
2018-06-19T10:44:11.249Z,101377.41
2018-06-19T10:46:41.000Z,101372.18
2018-06-19T10:49:10.752Z,101369.95
2018-06-19T10:51:40.528Z,101376.17
2018-06-19T10:54:10.648Z,101377.05
2018-06-19T10:56:40.352Z,101373.20
2018-06-19T10:59:10.205Z,101376.92
2018-06-19T11:01:39.966Z,101365.03
2018-06-19T11:04:09.722Z,101367.22
2018-06-19T11:06:39.525Z,101368.58
2018-06-19T11:09:11.086Z,101375.25
2018-06-19T11:11:40.990Z,101372.68
2018-06-19T11:14:10.829Z,101372.70
2018-06-19T11:16:40.670Z,101371.76
2018-06-19T11:19:10.416Z,101363.67
2018-06-19T11:21:40.202Z,101370.77
2018-06-19T11:24:09.894Z,101366.89
2018-06-19T11:26:39.722Z,101359.13
2018-06-19T11:29:09.548Z,101357.91
2018-06-19T11:31:39.238Z,101357.36
2018-06-19T11:34:08.998Z,101363.95
2018-06-19T11:36:38.733Z,101368.12
2018-06-19T11:39:12.634Z,101366.53
2018-06-19T11:41:43.201Z,101367.20
2018-06-19T11:44:13.007Z,101365.31
2018-06-19T11:46:42.850Z,101362.50
2018-06-19T11:49:12.709Z,101359.13
2018-06-19T11:51:42.567Z,101368.05
2018-06-19T11:54:12.393Z,101354.65
2018-06-19T11:56:42.228Z,101356.67
2018-06-19T11:59:12.048Z,101352.70
2018-06-19T12:01:41.874Z,101349.52
2018-06-19T12:04:11.610Z,101340.22
2018-06-19T12:06:41.422Z,101350.44
2018-06-19T12:09:11.683Z,101335.53
2018-06-19T12:11:41.892Z,101339.13
2018-06-19T12:14:12.534Z,101343.13
2018-06-19T12:16:42.274Z,101346.02
2018-06-19T12:19:11.970Z,101350.22
2018-06-19T12:21:41.700Z,101349.64
2018-06-19T12:24:11.531Z,101348.14
2018-06-19T12:26:41.448Z,101352.02
2018-06-19T12:29:11.650Z,101357.93
2018-06-19T12:31:41.432Z,101350.92
2018-06-19T12:34:11.716Z,101352.27
2018-06-19T12:36:41.634Z,101348.97
2018-06-19T12:39:12.352Z,101353.47
2018-06-19T12:41:47.253Z,101349.51
2018-06-19T12:44:16.948Z,101348.17
2018-06-19T12:46:46.737Z,101352.67
2018-06-19T12:49:26.158Z,101359.27
2018-06-19T12:52:13.414Z,101356.20
2018-06-19T12:55:26.545Z,101357.41
2018-06-19T12:57:56.316Z,101357.03
2018-06-19T13:00:26.853Z,101349.69
2018-06-19T13:03:13.610Z,101351.92
2018-06-19T13:06:33.206Z,101352.64
2018-06-19T13:09:03.028Z,101337.68
2018-06-19T13:11:35.195Z,101334.97
2018-06-19T13:14:21.641Z,101337.37
2018-06-19T13:17:08.147Z,101342.60
2018-06-19T13:19:54.637Z,101341.73
2018-06-19T13:22:24.593Z,101345.47
2018-06-19T13:24:54.563Z,101346.67
2018-06-19T13:27:24.309Z,101343.17
2018-06-19T13:30:12.033Z,101339.73
2018-06-19T13:32:41.913Z,101334.23
2018-06-19T13:35:11.733Z,101334.98
2018-06-19T13:37:41.512Z,101335.64
2018-06-19T13:41:26.990Z,101334.79
2018-06-19T13:44:14.419Z,101334.31
2018-06-19T13:46:44.179Z,101330.73
2018-06-19T13:49:13.881Z,101337.63
2018-06-19T13:51:43.632Z,101334.31
2018-06-19T13:54:13.407Z,101334.16
2018-06-19T13:57:27.372Z,101337.24
2018-06-19T13:59:57.221Z,101334.80
2018-06-19T14:02:27.151Z,101329.08
2018-06-19T14:04:57.357Z,101337.94
2018-06-19T14:07:28.182Z,101336.72
2018-06-19T14:10:14.882Z,101340.81
2018-06-19T14:13:05.936Z,101338.53
2018-06-19T14:15:38.258Z,101334.56
2018-06-19T14:18:08.657Z,101335.78
2018-06-19T14:20:38.975Z,101336.78
2018-06-19T14:23:08.804Z,101333.78
2018-06-19T14:25:38.590Z,101336.22
2018-06-19T14:28:08.393Z,101336.78
2018-06-19T14:30:38.168Z,101343.05
2018-06-19T14:33:09.403Z,101342.83
2018-06-19T14:35:40.828Z,101341.38
2018-06-19T14:38:10.400Z,101343.75
2018-06-19T14:40:40.350Z,101342.37
2018-06-19T14:43:12.527Z,101342.78
2018-06-19T14:45:42.712Z,101347.62
2018-06-19T14:48:12.628Z,101345.87
2018-06-19T14:50:42.446Z,101340.91
2018-06-19T14:53:12.392Z,101343.45
2018-06-19T14:55:42.136Z,101339.36
2018-06-19T14:58:11.982Z,101343.77
2018-06-19T15:00:41.780Z,101335.98
2018-06-19T15:03:11.543Z,101342.77
2018-06-19T15:05:41.340Z,101340.45
2018-06-19T15:08:11.269Z,101340.42
2018-06-19T15:10:41.254Z,101340.69
2018-06-19T15:13:10.980Z,101341.30
2018-06-19T15:15:40.803Z,101344.02
2018-06-19T15:18:10.595Z,101343.41
2018-06-19T15:20:41.148Z,101337.34
2018-06-19T15:23:10.948Z,101341.67
2018-06-19T15:25:40.865Z,101339.42
2018-06-19T15:28:10.779Z,101338.09
2018-06-19T15:30:40.540Z,101341.53
2018-06-19T15:33:10.792Z,101341.97
2018-06-19T15:35:40.843Z,101341.48
2018-06-19T15:38:11.832Z,101345.73
2018-06-19T15:40:44.182Z,101343.33
2018-06-19T15:43:14.112Z,101349.11
2018-06-19T15:45:43.976Z,101344.88
2018-06-19T15:48:14.151Z,101353.52
2018-06-19T15:50:44.294Z,101350.75
2018-06-19T15:53:14.068Z,101357.72
2018-06-19T15:55:43.857Z,101358.25
2018-06-19T15:58:13.691Z,101355.94
2018-06-19T16:00:43.528Z,101364.64
2018-06-19T16:03:13.360Z,101372.31
2018-06-19T16:05:43.221Z,101369.72
2018-06-19T16:08:19.362Z,101371.12
2018-06-19T16:10:50.132Z,101375.23
2018-06-19T16:13:19.854Z,101370.57
2018-06-19T16:15:49.695Z,101368.28
2018-06-19T16:18:19.172Z,101371.92
2018-06-19T16:20:49.014Z,101365.63
2018-06-19T16:23:18.825Z,101363.34
2018-06-19T16:25:48.325Z,101371.16
2018-06-19T16:28:18.121Z,101372.83
2018-06-19T16:30:47.976Z,101374.53
2018-06-19T16:33:17.859Z,101372.37
2018-06-19T16:35:47.656Z,101373.52
2018-06-19T16:38:17.536Z,101371.88
2018-06-19T16:40:47.393Z,101369.06
2018-06-19T16:43:17.347Z,101369.41
2018-06-19T16:45:47.447Z,101370.62
2018-06-19T16:48:17.242Z,101376.89
2018-06-19T16:50:47.246Z,101374.00
2018-06-19T16:53:17.499Z,101375.25
2018-06-19T16:55:47.466Z,101374.52
2018-06-19T16:58:17.267Z,101375.02
2018-06-19T17:00:47.255Z,101381.64
2018-06-19T17:03:17.062Z,101381.22
2018-06-19T17:05:46.909Z,101380.88
2018-06-19T17:08:16.855Z,101384.80
2018-06-19T17:10:46.671Z,101386.08
2018-06-19T17:13:16.543Z,101387.64
2018-06-19T17:15:46.484Z,101390.27
2018-06-19T17:18:16.396Z,101383.11
2018-06-19T17:20:46.275Z,101387.51
2018-06-19T17:23:16.153Z,101382.63
2018-06-19T17:25:46.062Z,101379.91
2018-06-19T17:28:15.859Z,101375.80
2018-06-19T17:30:45.697Z,101376.48
2018-06-19T17:33:15.273Z,101374.06
2018-06-19T17:35:46.573Z,101378.84
2018-06-19T17:38:16.943Z,101373.91
2018-06-19T17:40:47.128Z,101373.63
2018-06-19T17:43:17.039Z,101376.54
2018-06-19T17:45:47.143Z,101378.91
2018-06-19T17:48:17.181Z,101379.55
2018-06-19T17:50:47.257Z,101376.98
2018-06-19T17:53:17.938Z,101374.70
2018-06-19T17:55:48.011Z,101377.83
2018-06-19T17:58:18.114Z,101377.45
2018-06-19T18:01:02.415Z,101370.39
2018-06-19T18:03:32.368Z,101375.80
2018-06-19T18:06:02.717Z,101373.88
2018-06-19T18:08:32.907Z,101378.58
2018-06-19T18:11:03.235Z,101381.67
2018-06-19T18:13:33.057Z,101377.73
2018-06-19T18:16:02.989Z,101377.38
2018-06-19T18:18:33.357Z,101372.37
2018-06-19T18:21:03.482Z,101377.03
2018-06-19T18:23:33.351Z,101378.98
2018-06-19T18:26:03.323Z,101378.76
2018-06-19T18:28:34.098Z,101384.46
2018-06-19T18:31:03.553Z,101381.94
2018-06-19T18:33:33.379Z,101382.05
2018-06-19T18:36:04.075Z,101379.44
2018-06-19T18:38:34.274Z,101383.48
2018-06-19T18:41:04.380Z,101383.98
2018-06-19T18:43:34.276Z,101382.75
2018-06-19T18:46:04.230Z,101387.17
2018-06-19T18:48:34.262Z,101385.34
2018-06-19T18:51:04.255Z,101388.53
2018-06-19T18:53:34.150Z,101398.08
2018-06-19T18:56:04.055Z,101394.98
2018-06-19T18:58:34.283Z,101399.13
2018-06-19T19:01:04.195Z,101399.65
2018-06-19T19:03:34.158Z,101396.72
2018-06-19T19:06:03.990Z,101401.61
2018-06-19T19:08:35.133Z,101400.72
2018-06-19T19:11:06.218Z,101408.19
2018-06-19T19:13:36.410Z,101407.30
2018-06-19T19:16:12.246Z,101410.41
2018-06-19T19:18:47.189Z,101416.08
2018-06-19T19:21:17.058Z,101420.84
2018-06-19T19:23:48.550Z,101420.72
2018-06-19T19:26:23.177Z,101424.60
2018-06-19T19:28:58.065Z,101427.17
2018-06-19T19:31:27.989Z,101425.80
2018-06-19T19:33:57.891Z,101436.08
2018-06-19T19:36:32.847Z,101441.90
2018-06-19T19:39:08.836Z,101441.03
2018-06-19T19:41:38.868Z,101449.05
2018-06-19T19:44:08.829Z,101453.16
2018-06-19T19:46:43.867Z,101451.88
2018-06-19T19:49:14.443Z,101465.17
2018-06-19T19:51:44.410Z,101459.52
2018-06-19T19:54:15.253Z,101455.95
2018-06-19T19:56:50.424Z,101461.27
2018-06-19T19:59:21.932Z,101470.48
2018-06-19T20:01:53.312Z,101475.06
2018-06-19T20:04:23.307Z,101471.78
2018-06-19T20:06:53.244Z,101469.11
2018-06-19T20:09:23.095Z,101472.67
2018-06-19T20:11:52.995Z,101468.11
2018-06-19T20:14:22.937Z,101474.17
2018-06-19T20:19:43.277Z,101473.47
2018-06-19T20:22:13.197Z,101472.58
2018-06-19T20:24:43.097Z,101476.44
2018-06-19T20:27:13.412Z,101477.23
2018-06-19T20:29:44.023Z,101480.23
2018-06-19T20:32:15.977Z,101479.16
2018-06-19T20:34:45.949Z,101479.48
2018-06-19T20:37:16.476Z,101480.87
2018-06-19T20:39:46.746Z,101487.29
2018-06-19T20:42:19.925Z,101476.77
2018-06-19T20:44:49.756Z,101472.23
2018-06-19T20:47:19.681Z,101484.36
2018-06-19T20:49:50.584Z,101483.69
2018-06-19T20:52:21.270Z,101483.85
2018-06-19T20:54:51.336Z,101489.93
2018-06-19T20:57:21.241Z,101484.00
2018-06-19T20:59:51.102Z,101476.20
2018-06-19T21:02:20.869Z,101490.95
2018-06-19T21:04:50.722Z,101487.83
2018-06-19T21:07:21.286Z,101494.04
2018-06-19T21:09:51.291Z,101496.63
2018-06-19T21:12:22.286Z,101493.48
2018-06-19T21:14:52.348Z,101496.26
2018-06-19T21:17:22.217Z,101497.92
2018-06-19T21:19:52.064Z,101497.51
2018-06-19T21:22:22.593Z,101497.34
2018-06-19T21:24:52.359Z,101500.19
2018-06-19T21:27:22.212Z,101501.83
2018-06-19T21:29:52.102Z,101501.88
2018-06-19T21:32:21.937Z,101508.23
2018-06-19T21:34:52.314Z,101510.14
2018-06-19T21:37:23.594Z,101512.14
2018-06-19T21:39:53.345Z,101506.10
2018-06-19T21:42:23.073Z,101514.47
2018-06-19T21:44:52.966Z,101512.25
2018-06-19T21:47:22.761Z,101519.97
2018-06-19T21:49:52.699Z,101524.47
2018-06-19T21:52:22.549Z,101519.16
2018-06-19T21:54:52.347Z,101518.12
2018-06-19T21:57:22.247Z,101513.56
2018-06-19T21:59:52.160Z,101524.16
2018-06-19T22:02:27.012Z,101522.23
2018-06-19T22:04:56.472Z,101523.39
2018-06-19T22:07:26.964Z,101532.13
2018-06-19T22:09:56.944Z,101534.44
2018-06-19T22:12:27.002Z,101528.77
2018-06-19T22:14:57.076Z,101528.17
2018-06-19T22:17:27.006Z,101527.47
2018-06-19T22:19:58.106Z,101532.88
2018-06-19T22:22:28.042Z,101534.39
2018-06-19T22:24:58.199Z,101526.96
2018-06-19T22:27:28.186Z,101528.11
2018-06-19T22:29:58.619Z,101523.44
2018-06-19T22:32:28.617Z,101523.08
2018-06-19T22:34:58.363Z,101523.95
2018-06-19T22:37:28.375Z,101536.17
2018-06-19T22:39:58.545Z,101531.55
2018-06-19T22:42:28.344Z,101533.02
2018-06-19T22:44:58.194Z,101536.73
2018-06-19T22:47:28.140Z,101534.66
2018-06-19T22:49:58.868Z,101536.99
2018-06-19T22:52:28.854Z,101536.25
2018-06-19T22:54:59.336Z,101535.41
2018-06-19T22:57:29.364Z,101540.55
2018-06-19T22:59:59.284Z,101546.02
2018-06-19T23:02:29.222Z,101548.28
2018-06-19T23:04:59.380Z,101547.06
2018-06-19T23:07:31.040Z,101549.75
2018-06-19T23:10:01.136Z,101551.58
2018-06-19T23:12:30.974Z,101555.25
2018-06-19T23:15:00.891Z,101556.59
2018-06-19T23:17:30.800Z,101551.66
2018-06-19T23:20:00.752Z,101550.41
2018-06-19T23:22:31.456Z,101551.37
2018-06-19T23:25:01.440Z,101552.86
2018-06-19T23:27:31.151Z,101555.49
2018-06-19T23:30:01.274Z,101559.63
2018-06-19T23:32:31.164Z,101539.03
2018-06-19T23:35:01.200Z,101557.11
2018-06-19T23:37:31.708Z,101560.70
2018-06-19T23:40:02.686Z,101560.20
2018-06-19T23:42:33.458Z,101566.81
2018-06-19T23:45:04.149Z,101562.00
2018-06-19T23:47:34.363Z,101563.45
2018-06-19T23:50:04.286Z,101564.84
2018-06-19T23:52:34.656Z,101568.58
2018-06-19T23:55:04.564Z,101572.67
2018-06-19T23:57:35.063Z,101565.76
